Terminal Aerodrome Forecast
Issued by NWS

Home | Current Version | Previous Version | Text Only | Print | Product List | Glossary On
Versions: 1 2 3 4 5 6 7 8 9 10 11 12 13 14 15 16 17 18 19 20 21 22 23 24 25 26
763
FTUS45 KRIW 210540
TAFCOD
TAF
KCOD 210540Z 2106/2206 35012G18KT P6SM -SHRA SCT020 OVC050
     FM210800 35013G20KT 6SM -RA SCT015 OVC025
     FM211500 34014G23KT 6SM -RA BR OVC015
     FM212000 01017G30KT 6SM -RA OVC025
     FM220200 34010KT 5SM -RASN OVC015
     AMD LTD TO CLD VIS AND WIND=

USA.gov is the U.S. government's official web portal to all federal, state and local government web resources and services.